Mackinaw City, MI

2:58 AM EDT on September 02, 2014 (GMT -0400)
Mackinac Island | Change Station
CLOSE
Current Station
Airport
Location: Mackinac Island,
Elevation: 741 ft
Nearby Weather Stations

Elev 741 ft 45.87 °N, 84.64 °W | Updated 19 minutes ago

Fog
Fog
63 °F
Feels Like 63 °F
N
6
Wind Variable Wind from SW

Today
High -- | Low -- °F
--% Chance of Precip.
Yesterday
High -- | Low -- °F
Precip. -- in
7:01 AM 8:15 PM
Waxing Crescent, 48% visible
Pressure 29.75 in
Visibility 0.2 miles
Clouds Overcast 200 ft
Dew Point 63 °F
Humidity 100%
Rainfall 0.00 in
Snow Depth Not available.
UV 0 out of 12
Pollen 8.30 out of 12
Ozone Good
PM2.5 Good
Flu Activity Not available.
METAR KMCD 020639Z AUTO 22005KT 1/4SM FG OVC002 17/17 A2975 RMK AO2 T01700170

More Conditions Fewer Conditions

Pressure 29.75 in
Visibility 0.2 miles
Clouds Overcast 200 ft
Dew Point 63 °F
Humidity 100%
Rainfall 0.00 in
Snow Depth Not available.
UV 0 out of 12
Pollen 8.30 out of 12
Ozone Good
PM2.5 Good
Flu Activity Not available.
METAR KMCD 020639Z AUTO 22005KT 1/4SM FG OVC002 17/17 A2975 RMK AO2 T01700170

More Conditions Fewer Conditions

Nowcast | as of 2:00 am EDT on September 2, 2014

At 3 am...partly cloudy. Isolated rain showers. Temperature 62. West winds 5 mph. At 5 am...mostly clear. Patchy fog. Temperature 60. Light winds. At 7 am...mostly clear. Patchy fog. Temperature 60. Light winds. At 9 am...mostly clear. Temperature 63. West winds 6 mph.

×

10-Day Weather Forecast

Almanac

Astronomy

Sep. 02, 2014 Rise Set
Actual Time 7:01 AM EDT 8:15 PM EDT
Civil Twilight 6:30 AM EDT 8:45 PM EDT
Nautical Twilight 5:53 AM EDT 9:22 PM EDT
Astronomical Twilight 5:14 AM EDT 10:01 PM EDT
Moon 3:06 PM EDT No Moon Set
Length of Visible Light 14h 15m
Length of Day
13h 13m
Tomorrow will be 3m 7s shorter.
Waxing Crescent, 48% of the Moon is Illuminated
Today
Waxing Crescent
Sep 2
First Quarter
Sep 8
Full
Sep 15
Last Quarter
Sep 24
New

Today's Extremes

State Highs State Lows

Community

WunderPhotos

Upload Photos

1,749,589 photos uploaded!

WunderBlogs® & News

Nearby

Air Quality

  Air Quality AQ Index Pollutant
Yesterday Good
OZONE
Yesterday Good
PM2.5
Current Good
OZONE
Current Good
PM2.5
Tuesday Good
OZONE
Tuesday Good
PM2.5

Snow Depth

Station Depth Elevation
No new snow has been reported.

Earthquake Activity

City Distance Mag. Time & Date
No recent earthquake activity has been reported nearby.
Minimum magnitude displayed is 2.5.

Coastal Water Temperatures

Place Temperature
Mackinaw City, MI 62.1 °F
Rock Cut, MI 62.1 °F
West Neebish, MI 59.0 °F
Little Rapids, MI 59.0 °F
S W Pier, MI 61.0 °F

Nearby Weather Stations